createdAt,value
2019-05-21T00:01:34.295Z,14.33
2019-05-21T00:04:04.179Z,13.87
2019-05-21T00:06:34.034Z,14.93
2019-05-21T00:09:05.060Z,14.80
2019-05-21T00:11:35.031Z,15.47
2019-05-21T00:14:04.893Z,14.30
2019-05-21T00:16:34.643Z,14.30
2019-05-21T00:19:04.482Z,14.47
2019-05-21T00:21:34.614Z,13.50
2019-05-21T00:24:04.447Z,15.13
2019-05-21T00:26:34.187Z,13.50
2019-05-21T00:29:41.182Z,13.70
2019-05-21T00:32:46.930Z,14.00
2019-05-21T00:35:53.817Z,13.37
2019-05-21T00:38:59.962Z,14.53
2019-05-21T00:42:02.885Z,14.20
2019-05-21T00:44:42.127Z,13.37
2019-05-21T00:47:12.988Z,13.57
2019-05-21T00:49:42.803Z,12.60
2019-05-21T00:52:13.122Z,11.73
2019-05-21T00:54:43.747Z,12.30
2019-05-21T00:57:13.939Z,11.40
2019-05-21T00:59:43.686Z,11.60
2019-05-21T01:02:13.493Z,11.40
2019-05-21T01:04:58.179Z,11.40
2019-05-21T01:07:15.590Z,11.70
2019-05-21T01:09:45.745Z,11.53
2019-05-21T01:12:15.591Z,10.67
2019-05-21T01:14:45.951Z,11.37
2019-05-21T01:17:15.675Z,9.90
2019-05-21T01:19:45.712Z,10.67
2019-05-21T01:22:15.704Z,9.87
2019-05-21T01:24:45.435Z,10.10
2019-05-21T01:27:15.262Z,12.20
2019-05-21T01:29:45.343Z,9.57
2019-05-21T01:32:15.648Z,10.30
2019-05-21T01:34:45.626Z,9.47
2019-05-21T01:37:15.939Z,10.50
2019-05-21T01:39:46.274Z,10.43
2019-05-21T01:42:16.437Z,10.70
2019-05-21T01:44:46.806Z,10.60
2019-05-21T01:47:16.844Z,10.90
2019-05-21T01:49:47.021Z,10.80
2019-05-21T01:52:17.388Z,10.40
2019-05-21T01:54:47.441Z,10.50
2019-05-21T01:57:17.445Z,10.30
2019-05-21T01:59:47.816Z,11.53
2019-05-21T02:02:18.258Z,10.90
2019-05-21T02:04:47.986Z,9.60
2019-05-21T02:07:17.898Z,11.07
2019-05-21T02:09:59.790Z,10.00
2019-05-21T02:12:29.886Z,10.00
2019-05-21T02:14:59.670Z,10.97
2019-05-21T02:17:29.498Z,9.70
2019-05-21T02:19:59.194Z,9.20
2019-05-21T02:22:29.008Z,9.07
2019-05-21T02:24:58.686Z,9.67
2019-05-21T02:27:28.502Z,9.20
2019-05-21T02:29:58.178Z,8.53
2019-05-21T02:32:28.019Z,10.00
2019-05-21T02:34:57.855Z,10.57
2019-05-21T02:37:27.663Z,8.87
2019-05-21T02:39:58.005Z,9.10
2019-05-21T02:42:27.828Z,8.77
2019-05-21T02:44:57.670Z,10.63
2019-05-21T02:47:46.560Z,9.47
2019-05-21T02:50:16.366Z,9.93
2019-05-21T02:52:46.444Z,10.60
2019-05-21T02:55:16.841Z,12.00
2019-05-21T02:57:46.933Z,10.70
2019-05-21T03:00:51.601Z,10.67
2019-05-21T03:03:24.423Z,9.90
2019-05-21T03:06:10.441Z,10.43
2019-05-21T03:08:26.402Z,12.10
2019-05-21T03:10:56.474Z,12.60
2019-05-21T03:13:45.734Z,10.67
2019-05-21T03:16:15.473Z,11.07
2019-05-21T03:18:45.524Z,11.80
2019-05-21T03:21:15.610Z,11.37
2019-05-21T03:23:46.035Z,11.20
2019-05-21T03:26:16.128Z,12.50
2019-05-21T03:28:46.323Z,11.83
2019-05-21T03:31:16.420Z,10.90
2019-05-21T03:33:46.676Z,11.30
2019-05-21T03:36:31.869Z,12.33
2019-05-21T03:38:48.852Z,11.57
2019-05-21T03:41:19.448Z,12.00
2019-05-21T03:43:49.775Z,12.60
2019-05-21T03:46:19.525Z,12.37
2019-05-21T03:48:49.380Z,12.40
2019-05-21T03:51:19.454Z,11.07
2019-05-21T03:53:49.549Z,12.03
2019-05-21T03:56:19.300Z,11.97
2019-05-21T03:58:49.147Z,9.77
2019-05-21T04:01:18.980Z,10.60
2019-05-21T04:03:48.742Z,9.70
2019-05-21T04:06:18.408Z,10.30
2019-05-21T04:08:48.173Z,10.30
2019-05-21T04:11:17.920Z,11.60
2019-05-21T04:13:47.745Z,9.70
2019-05-21T04:16:26.435Z,10.90
2019-05-21T04:19:00.249Z,10.00
2019-05-21T04:21:30.310Z,9.33
2019-05-21T04:24:00.069Z,9.73
2019-05-21T04:26:29.818Z,10.20
2019-05-21T04:28:59.659Z,9.50
2019-05-21T04:31:29.425Z,9.60
2019-05-21T04:33:59.174Z,8.70
2019-05-21T04:36:29.182Z,9.60
2019-05-21T04:38:59.203Z,9.40
2019-05-21T04:41:29.280Z,8.67
2019-05-21T04:43:59.264Z,9.50
2019-05-21T04:46:29.487Z,8.20
2019-05-21T04:48:59.844Z,9.10
2019-05-21T04:51:29.669Z,8.43
2019-05-21T04:53:59.516Z,8.30
2019-05-21T04:56:29.824Z,8.60
2019-05-21T04:58:59.850Z,8.67
2019-05-21T05:01:29.963Z,8.53
2019-05-21T05:04:00.105Z,8.30
2019-05-21T05:06:30.367Z,8.60
2019-05-21T05:09:00.463Z,7.73
2019-05-21T05:11:30.721Z,7.03
2019-05-21T05:14:00.775Z,8.43
2019-05-21T05:16:30.858Z,7.60
2019-05-21T05:19:01.554Z,7.70
2019-05-21T05:21:32.399Z,7.33
2019-05-21T05:24:02.790Z,7.40
2019-05-21T05:26:32.521Z,8.07
2019-05-21T05:29:02.867Z,7.90
2019-05-21T05:31:33.246Z,7.23
2019-05-21T05:34:03.266Z,7.43
2019-05-21T05:36:33.615Z,7.03
2019-05-21T05:39:04.762Z,7.70
2019-05-21T05:41:35.115Z,8.70
2019-05-21T05:44:05.041Z,7.80
2019-05-21T05:46:35.143Z,8.30
2019-05-21T05:49:13.959Z,7.80
2019-05-21T05:51:44.137Z,8.93
2019-05-21T05:54:13.945Z,8.80
2019-05-21T05:56:43.689Z,9.30
2019-05-21T05:59:14.490Z,8.60
2019-05-21T06:01:44.619Z,9.20
2019-05-21T06:04:14.659Z,9.70
2019-05-21T06:07:03.893Z,8.83
2019-05-21T06:09:33.771Z,8.33
2019-05-21T06:12:03.919Z,9.60
2019-05-21T06:14:33.783Z,9.90
2019-05-21T06:17:04.358Z,10.33
2019-05-21T06:19:35.051Z,8.27
2019-05-21T06:22:24.270Z,9.17
2019-05-21T06:24:54.943Z,8.87
2019-05-21T06:27:25.507Z,9.20
2019-05-21T06:29:55.498Z,8.37
2019-05-21T06:32:25.593Z,8.40
2019-05-21T06:34:55.798Z,9.60
2019-05-21T06:37:25.615Z,8.70
2019-05-21T06:39:55.450Z,7.67
2019-05-21T06:42:25.853Z,8.37
2019-05-21T06:44:55.956Z,8.90
2019-05-21T06:47:26.087Z,9.53
2019-05-21T06:49:56.533Z,8.50
2019-05-21T06:52:26.715Z,8.70
2019-05-21T06:54:57.461Z,8.60
2019-05-21T06:57:28.083Z,9.90
2019-05-21T06:59:58.443Z,9.50
2019-05-21T07:02:28.422Z,8.20
2019-05-21T07:04:58.737Z,7.93
2019-05-21T07:07:29.343Z,8.90
2019-05-21T07:09:59.391Z,8.97
2019-05-21T07:12:29.862Z,8.60
2019-05-21T07:15:00.275Z,7.70
2019-05-21T07:17:30.616Z,8.80
2019-05-21T07:20:00.535Z,9.23
2019-05-21T07:22:30.468Z,8.13
2019-05-21T07:25:00.721Z,9.70
2019-05-21T07:27:31.275Z,8.23
2019-05-21T07:30:01.582Z,9.10
2019-05-21T07:32:31.430Z,10.20
2019-05-21T07:35:01.925Z,11.10
2019-05-21T07:37:32.316Z,9.43
2019-05-21T07:40:02.150Z,9.10
2019-05-21T07:42:32.362Z,9.17
2019-05-21T07:45:02.815Z,9.60
2019-05-21T07:47:32.932Z,10.63
2019-05-21T07:50:02.940Z,10.47
2019-05-21T07:52:32.742Z,9.93
2019-05-21T07:55:02.763Z,10.10
2019-05-21T07:57:33.108Z,9.63
2019-05-21T08:00:03.348Z,10.67
2019-05-21T08:02:33.547Z,10.07
2019-05-21T08:05:03.738Z,12.10
2019-05-21T08:07:33.939Z,10.00
2019-05-21T08:10:04.494Z,11.60
2019-05-21T08:12:39.312Z,9.40
2019-05-21T08:15:06.888Z,9.10
2019-05-21T08:17:37.050Z,10.60
2019-05-21T08:20:10.248Z,10.20
2019-05-21T08:22:40.099Z,10.30
2019-05-21T08:25:14.174Z,10.37
2019-05-21T08:27:42.912Z,8.63
2019-05-21T08:30:13.237Z,10.03
2019-05-21T08:32:43.225Z,11.13
2019-05-21T08:35:13.051Z,9.03
2019-05-21T08:37:42.759Z,8.60
2019-05-21T08:40:12.858Z,9.67
2019-05-21T08:42:42.728Z,10.17
2019-05-21T08:45:13.449Z,8.97
2019-05-21T08:47:43.362Z,8.57
2019-05-21T08:50:13.777Z,9.70
2019-05-21T08:52:45.925Z,9.33
2019-05-21T08:55:35.057Z,8.93
2019-05-21T08:58:07.487Z,8.70
2019-05-21T09:00:36.547Z,8.70
2019-05-21T09:03:06.510Z,8.77
2019-05-21T09:05:36.420Z,9.17
2019-05-21T09:08:06.406Z,10.30
2019-05-21T09:10:40.276Z,7.80
2019-05-21T09:13:10.141Z,8.00
2019-05-21T09:15:40.674Z,8.70
2019-05-21T09:18:10.501Z,8.40
2019-05-21T09:20:40.257Z,9.73
2019-05-21T09:23:10.033Z,8.53
2019-05-21T09:25:40.186Z,9.73
2019-05-21T09:28:11.071Z,9.10
2019-05-21T09:30:41.219Z,8.70
2019-05-21T09:33:11.629Z,9.20
2019-05-21T09:35:41.806Z,8.50
2019-05-21T09:38:12.024Z,10.13
2019-05-21T09:40:42.131Z,9.60
2019-05-21T09:43:14.068Z,9.43
2019-05-21T09:45:44.322Z,8.67
2019-05-21T09:48:14.203Z,9.13
2019-05-21T09:50:44.104Z,8.47
2019-05-21T09:53:13.866Z,9.30
2019-05-21T09:55:43.615Z,9.50
2019-05-21T09:58:30.996Z,9.67
2019-05-21T10:01:19.882Z,9.10
2019-05-21T10:03:55.521Z,9.50
2019-05-21T10:06:25.399Z,9.17
2019-05-21T10:08:55.274Z,9.77
2019-05-21T10:11:25.195Z,11.43
2019-05-21T10:13:55.132Z,12.10
2019-05-21T10:16:25.074Z,11.10
2019-05-21T10:18:55.023Z,11.90
2019-05-21T10:21:24.928Z,11.90
2019-05-21T10:23:54.699Z,11.90
2019-05-21T10:26:24.604Z,12.10
2019-05-21T10:28:54.523Z,11.60
2019-05-21T10:31:24.585Z,11.93
2019-05-21T10:33:54.498Z,12.63
2019-05-21T10:36:24.327Z,14.67
2019-05-21T10:38:54.303Z,13.33
2019-05-21T10:41:24.171Z,13.43
2019-05-21T10:43:53.940Z,14.50
2019-05-21T10:46:23.789Z,15.90
2019-05-21T10:48:53.632Z,16.00
2019-05-21T10:51:42.673Z,14.90
2019-05-21T10:54:12.486Z,17.07
2019-05-21T10:56:48.069Z,16.17
2019-05-21T10:59:14.820Z,17.20
2019-05-21T11:02:10.822Z,17.43
2019-05-21T11:04:57.561Z,19.17
2019-05-21T11:07:27.894Z,21.23
2019-05-21T11:09:58.391Z,20.87
2019-05-21T11:12:28.323Z,21.53
2019-05-21T11:14:58.136Z,20.70
2019-05-21T11:17:27.991Z,20.10
2019-05-21T11:19:57.861Z,21.67
2019-05-21T11:22:27.743Z,20.53
2019-05-21T11:24:57.467Z,20.23
2019-05-21T11:27:27.226Z,20.23
2019-05-21T11:29:56.991Z,21.33
2019-05-21T11:32:26.854Z,20.33
2019-05-21T11:34:57.042Z,19.90
2019-05-21T11:37:26.974Z,22.27
2019-05-21T11:39:56.818Z,20.00
2019-05-21T11:42:26.915Z,21.33
2019-05-21T11:44:56.662Z,19.17
2019-05-21T11:47:26.552Z,19.83
2019-05-21T11:49:56.609Z,21.30
2019-05-21T11:52:27.050Z,19.30
2019-05-21T11:54:58.762Z,19.70
2019-05-21T11:57:28.636Z,19.93
2019-05-21T11:59:58.543Z,19.37
2019-05-21T12:02:28.546Z,19.40
2019-05-21T12:04:58.691Z,19.73
2019-05-21T12:07:28.968Z,18.97
2019-05-21T12:09:59.417Z,18.53
2019-05-21T12:12:29.242Z,20.00
2019-05-21T12:14:59.575Z,21.53
2019-05-21T12:17:30.463Z,23.30
2019-05-21T12:20:00.297Z,20.77
2019-05-21T12:22:30.651Z,23.50
2019-05-21T12:25:01.023Z,19.40
2019-05-21T12:27:31.492Z,20.97
2019-05-21T12:30:01.383Z,20.13
2019-05-21T12:32:31.327Z,23.87
2019-05-21T12:35:07.293Z,20.93
2019-05-21T12:37:38.819Z,22.87
2019-05-21T12:40:12.141Z,22.63
2019-05-21T12:42:43.086Z,22.80
2019-05-21T12:45:14.664Z,22.13
2019-05-21T12:47:44.599Z,23.17
2019-05-21T12:50:17.209Z,23.80
2019-05-21T12:52:48.323Z,25.57
2019-05-21T12:55:18.095Z,22.73
2019-05-21T12:57:51.059Z,25.33
2019-05-21T13:00:23.895Z,24.10
2019-05-21T13:02:53.875Z,25.00
2019-05-21T13:05:23.681Z,23.10
2019-05-21T13:07:53.609Z,22.83
2019-05-21T13:10:26.794Z,24.17
2019-05-21T13:12:55.648Z,23.13
2019-05-21T13:15:25.494Z,24.40
2019-05-21T13:17:56.282Z,21.90
2019-05-21T13:20:26.564Z,18.90
2019-05-21T13:22:56.852Z,19.00
2019-05-21T13:25:26.738Z,18.10
2019-05-21T13:27:57.821Z,20.27
2019-05-21T13:30:28.046Z,19.43
2019-05-21T13:32:58.049Z,16.47
2019-05-21T13:35:27.984Z,15.20
2019-05-21T13:37:58.302Z,12.50
2019-05-21T13:40:28.885Z,15.27
2019-05-21T13:42:59.151Z,16.57
2019-05-21T13:45:29.136Z,15.83
2019-05-21T13:47:59.118Z,18.77
2019-05-21T13:50:29.397Z,17.93
2019-05-21T13:52:59.634Z,17.50
2019-05-21T13:55:33.782Z,14.80
2019-05-21T13:58:01.817Z,20.00
2019-05-21T14:00:34.609Z,17.23
2019-05-21T14:03:05.834Z,17.23
2019-05-21T14:05:37.710Z,18.73
2019-05-21T14:08:07.931Z,16.77
2019-05-21T14:10:41.639Z,19.33
2019-05-21T14:13:12.871Z,19.83
2019-05-21T14:15:43.252Z,19.33
2019-05-21T14:18:14.183Z,17.87
2019-05-21T14:20:44.382Z,18.30
2019-05-21T14:23:14.880Z,18.50
2019-05-21T14:25:44.971Z,18.37
2019-05-21T14:28:15.010Z,17.30
2019-05-21T14:30:45.122Z,18.50
2019-05-21T14:33:15.469Z,17.53
2019-05-21T14:35:46.178Z,17.93
2019-05-21T14:38:16.685Z,16.70
2019-05-21T14:40:46.763Z,16.47
2019-05-21T14:43:16.943Z,16.27
2019-05-21T14:45:47.217Z,15.53
2019-05-21T14:48:18.042Z,15.53
2019-05-21T14:50:48.331Z,16.97
2019-05-21T14:53:18.901Z,17.37
2019-05-21T14:55:49.500Z,17.57
2019-05-21T14:58:19.576Z,16.93
2019-05-21T15:00:50.111Z,17.57
2019-05-21T15:03:25.162Z,18.63
2019-05-21T15:05:52.906Z,17.63
2019-05-21T15:08:22.665Z,18.40
2019-05-21T15:10:52.388Z,17.60
2019-05-21T15:13:22.288Z,16.80
2019-05-21T15:15:52.218Z,17.90
2019-05-21T15:18:22.705Z,17.63
2019-05-21T15:21:04.829Z,16.57
2019-05-21T15:23:34.939Z,19.70
2019-05-21T15:26:05.476Z,17.93
2019-05-21T15:28:35.625Z,17.17
2019-05-21T15:31:05.731Z,16.83
2019-05-21T15:33:36.335Z,21.40
2019-05-21T15:36:06.273Z,19.90
2019-05-21T15:38:49.444Z,21.00
2019-05-21T15:41:12.155Z,22.83
2019-05-21T15:43:40.485Z,21.30
2019-05-21T15:46:11.133Z,23.73
2019-05-21T15:48:44.073Z,21.57
2019-05-21T15:51:15.233Z,23.10
2019-05-21T15:53:46.366Z,20.97
2019-05-21T15:59:06.916Z,21.20
2019-05-21T16:01:40.508Z,20.93
2019-05-21T16:04:09.727Z,21.20
2019-05-21T16:06:40.311Z,23.17
2019-05-21T16:09:10.391Z,21.17
2019-05-21T16:11:40.684Z,21.67
2019-05-21T16:14:14.095Z,20.00
2019-05-21T16:16:52.060Z,22.43
2019-05-21T16:19:22.352Z,20.60
2019-05-21T16:21:52.170Z,23.27
2019-05-21T16:24:24.031Z,22.10
2019-05-21T16:26:54.163Z,19.97
2019-05-21T16:29:24.383Z,20.20
2019-05-21T16:31:55.021Z,22.00
2019-05-21T16:34:25.731Z,20.27
2019-05-21T16:36:56.807Z,19.80
2019-05-21T16:39:39.180Z,20.10
2019-05-21T16:42:10.772Z,18.93
2019-05-21T16:47:44.323Z,22.00
2019-05-21T16:50:04.133Z,24.27
2019-05-21T16:52:34.105Z,24.17
2019-05-21T16:55:04.518Z,20.20
2019-05-21T16:57:34.352Z,22.07
2019-05-21T17:00:04.677Z,20.97
2019-05-21T17:05:23.649Z,19.87
2019-05-21T17:07:53.941Z,22.43
2019-05-21T17:10:25.031Z,20.23
2019-05-21T17:12:55.584Z,19.33
2019-05-21T17:15:25.883Z,18.33
2019-05-21T17:17:56.061Z,20.40
2019-05-21T17:20:26.239Z,21.60
2019-05-21T17:22:56.595Z,21.63
2019-05-21T17:25:26.754Z,21.90
2019-05-21T17:27:56.634Z,23.40
2019-05-21T17:30:27.113Z,20.03
2019-05-21T17:32:57.511Z,22.93
2019-05-21T17:35:28.549Z,22.00
2019-05-21T17:38:07.450Z,20.20
2019-05-21T17:40:37.865Z,20.00
2019-05-21T17:43:09.591Z,19.53
2019-05-21T17:45:40.005Z,21.43
2019-05-21T17:48:11.078Z,18.97
2019-05-21T17:50:43.281Z,19.47
2019-05-21T17:53:13.884Z,18.47
2019-05-21T17:55:50.925Z,17.50
2019-05-21T17:58:24.013Z,18.40
2019-05-21T18:01:00.727Z,17.30
2019-05-21T18:03:31.071Z,18.07
2019-05-21T18:06:00.867Z,16.33
2019-05-21T18:08:31.611Z,17.23
2019-05-21T18:11:03.012Z,15.80
2019-05-21T18:13:33.940Z,16.57
2019-05-21T18:16:07.892Z,18.23
2019-05-21T18:18:47.182Z,17.80
2019-05-21T18:21:17.419Z,17.33
2019-05-21T18:23:48.087Z,16.83
2019-05-21T18:26:43.818Z,18.13
2019-05-21T18:29:13.994Z,16.30
2019-05-21T18:31:46.147Z,16.47
2019-05-21T18:34:22.519Z,19.80
2019-05-21T18:36:55.655Z,20.53
2019-05-21T18:39:26.787Z,18.87
2019-05-21T18:41:57.298Z,20.13
2019-05-21T18:44:29.067Z,18.83
2019-05-21T18:46:59.854Z,16.67
2019-05-21T18:49:30.881Z,16.90
2019-05-21T18:52:02.735Z,16.50
2019-05-21T18:54:51.787Z,17.50
2019-05-21T18:57:25.972Z,16.87
2019-05-21T18:59:58.041Z,22.00
2019-05-21T19:02:28.150Z,19.43
2019-05-21T19:05:17.802Z,18.40
2019-05-21T19:08:00.695Z,17.97
2019-05-21T19:10:30.654Z,18.23
2019-05-21T19:13:01.222Z,29.13
2019-05-21T19:19:40.371Z,20.30
2019-05-21T19:22:12.990Z,20.10
2019-05-21T19:25:21.333Z,18.97
2019-05-21T19:27:52.927Z,17.03
2019-05-21T19:30:22.783Z,18.60
2019-05-21T19:32:58.653Z,18.97
2019-05-21T19:35:28.830Z,17.77
2019-05-21T19:37:58.731Z,19.87
2019-05-21T19:40:31.696Z,19.20
2019-05-21T19:45:50.587Z,19.40
2019-05-21T19:48:25.930Z,16.73
2019-05-21T19:51:00.093Z,18.73
2019-05-21T19:53:33.682Z,18.00
2019-05-21T19:56:22.630Z,18.57
2019-05-21T19:58:52.395Z,20.20
2019-05-21T20:01:22.358Z,16.90
2019-05-21T20:03:52.475Z,22.23
2019-05-21T20:06:22.751Z,19.13
2019-05-21T20:08:52.898Z,21.20
2019-05-21T20:14:12.821Z,19.77
2019-05-21T20:16:45.055Z,19.40
2019-05-21T20:19:15.604Z,20.37
2019-05-21T20:21:46.514Z,18.97
2019-05-21T20:24:17.835Z,26.77
2019-05-21T20:26:48.555Z,33.30
2019-05-21T20:29:22.506Z,46.57
2019-05-21T20:31:52.810Z,20.47
2019-05-21T20:34:23.927Z,19.23
2019-05-21T20:36:54.542Z,20.30
2019-05-21T20:39:27.170Z,20.13
2019-05-21T20:41:59.621Z,17.50
2019-05-21T20:44:29.815Z,17.77
2019-05-21T20:47:03.918Z,19.60
2019-05-21T20:49:36.774Z,25.90
2019-05-21T20:52:18.716Z,19.00
2019-05-21T20:54:47.503Z,18.40
2019-05-21T20:57:19.040Z,22.50
2019-05-21T20:59:49.339Z,21.00
2019-05-21T21:02:25.786Z,20.10
2019-05-21T21:04:55.900Z,18.87
2019-05-21T21:07:27.288Z,21.10
2019-05-21T21:09:58.571Z,19.67
2019-05-21T21:12:29.022Z,19.27
2019-05-21T21:14:58.950Z,19.47
2019-05-21T21:17:31.259Z,19.43
2019-05-21T21:20:01.738Z,18.33
2019-05-21T21:22:32.444Z,25.27
2019-05-21T21:25:05.495Z,30.00
2019-05-21T21:27:41.307Z,21.20
2019-05-21T21:30:10.800Z,28.30
2019-05-21T21:32:42.015Z,20.97
2019-05-21T21:35:12.575Z,19.07
2019-05-21T21:37:42.478Z,18.20
2019-05-21T21:40:13.739Z,18.33
2019-05-21T21:42:44.334Z,18.23
2019-05-21T21:45:16.556Z,17.03
2019-05-21T21:47:46.729Z,18.23
2019-05-21T21:50:18.739Z,18.30
2019-05-21T21:52:49.124Z,19.50
2019-05-21T21:55:19.114Z,17.70
2019-05-21T21:57:49.267Z,20.60
2019-05-21T22:01:25.964Z,19.90
2019-05-21T22:04:17.244Z,19.70
2019-05-21T22:06:49.738Z,21.47
2019-05-21T22:09:25.495Z,21.70
2019-05-21T22:11:59.737Z,20.27
2019-05-21T22:17:31.121Z,19.10
2019-05-21T22:20:01.561Z,20.40
2019-05-21T22:22:32.351Z,22.10
2019-05-21T22:27:53.671Z,17.60
2019-05-21T22:30:27.013Z,25.20
2019-05-21T22:32:59.194Z,22.23
2019-05-21T22:35:39.922Z,24.37
2019-05-21T22:38:10.199Z,19.00
2019-05-21T22:40:58.644Z,17.70
2019-05-21T22:43:33.103Z,20.80
2019-05-21T22:46:04.084Z,17.97
2019-05-21T22:48:33.888Z,19.20
2019-05-21T22:51:10.220Z,19.80
2019-05-21T22:53:40.150Z,18.87
2019-05-21T22:56:10.561Z,17.77
2019-05-21T22:58:40.605Z,18.00
2019-05-21T23:01:13.070Z,18.87
2019-05-21T23:03:44.609Z,17.40
2019-05-21T23:06:14.759Z,20.30
2019-05-21T23:08:45.133Z,43.50
2019-05-21T23:11:16.019Z,22.07
2019-05-21T23:13:46.123Z,19.37
2019-05-21T23:16:16.713Z,19.43
2019-05-21T23:19:06.822Z,17.63
2019-05-21T23:21:37.199Z,18.57
2019-05-21T23:24:13.230Z,18.53
2019-05-21T23:26:44.628Z,19.40
2019-05-21T23:29:15.549Z,18.63
2019-05-21T23:31:47.855Z,17.67
2019-05-21T23:34:18.774Z,18.20
2019-05-21T23:36:51.511Z,18.10
2019-05-21T23:39:25.325Z,19.57
2019-05-21T23:41:55.941Z,18.30
2019-05-21T23:44:25.715Z,16.87
2019-05-21T23:46:55.666Z,16.00
2019-05-21T23:49:25.458Z,16.97
2019-05-21T23:51:55.554Z,16.23
2019-05-21T23:54:35.347Z,16.20
2019-05-21T23:57:05.370Z,16.97
2019-05-21T23:59:36.071Z,16.00
